Time;durP1;ratioP1;P1;durP2;ratioP2;P2;SDS_P1;SDS_P2;PMS_P1;PMS_P2;Temp;Humidity;BMP_temperature;BMP_pressure;BME280_temperature;BME280_humidity;BME280_pressure;Samples;Min_cycle;Max_cycle;Signal;HPM_P1;HPM_P2
2023/08/17 00:00:00;;;;;;;0.00;0.00;;;14.30;99.90;;;;;;5051766;28;20044;-87
2023/08/17 00:02:25;;;;;;;0.00;0.00;;;14.30;99.90;;;;;;5052939;28;20048;-87
2023/08/17 00:04:51;;;;;;;0.10;0.10;;;14.30;99.90;;;;;;5052394;28;20048;-87
2023/08/17 00:07:17;;;;;;;1.25;0.30;;;14.20;99.90;;;;;;5052129;28;20132;-87
2023/08/17 00:09:42;;;;;;;0.00;0.00;;;14.20;99.90;;;;;;5052987;28;20096;-87
2023/08/17 00:12:08;;;;;;;0.10;0.00;;;14.10;99.90;;;;;;5051189;28;20518;-87
2023/08/17 00:14:34;;;;;;;0.08;0.08;;;15.30;99.90;;;;;;5035440;28;20263;-87
2023/08/17 00:17:00;;;;;;;0.03;0.03;;;14.10;99.90;;;;;;5051331;28;20056;-87
2023/08/17 00:19:25;;;;;;;0.00;0.00;;;14.90;99.90;;;;;;5034508;28;20044;-87
2023/08/17 00:21:51;;;;;;;0.00;0.00;;;14.00;99.90;;;;;;5033856;28;20044;-87
2023/08/17 00:24:17;;;;;;;0.35;0.32;;;14.10;1.00;;;;;;5051466;28;20439;-87
2023/08/17 00:26:42;;;;;;;0.20;0.10;;;14.10;1.00;;;;;;5050402;28;20048;-87
2023/08/17 00:29:08;;;;;;;0.47;0.20;;;14.10;1.00;;;;;;5050104;28;20137;-87
2023/08/17 00:31:34;;;;;;;0.10;0.10;;;14.10;1.00;;;;;;5033410;28;20202;-87
2023/08/17 00:33:59;;;;;;;0.00;0.00;;;14.20;1.00;;;;;;5033411;28;20204;-87
2023/08/17 00:36:25;;;;;;;0.55;0.55;;;14.20;8.70;;;;;;5049140;28;20057;-88
2023/08/17 00:38:51;;;;;;;0.00;0.00;;;14.30;9.70;;;;;;5050616;28;20053;-88
2023/08/17 00:41:18;;;;;;;0.10;0.10;;;15.20;10.10;;;;;;5049751;28;20544;-87
2023/08/17 00:43:44;;;;;;;0.20;0.10;;;14.20;1.00;;;;;;5051627;28;20068;-88
2023/08/17 00:46:11;;;;;;;0.20;0.20;;;14.30;1.00;;;;;;5052184;28;20045;-88
2023/08/17 00:48:37;;;;;;;0.05;0.05;;;14.30;1.00;;;;;;5051138;28;20053;-86
2023/08/17 00:51:03;;;;;;;0.60;0.47;;;14.30;1.00;;;;;;5051065;28;20041;-86
2023/08/17 00:53:31;;;;;;;0.15;0.10;;;14.30;1.00;;;;;;5033059;28;20036;-86
2023/08/17 00:55:57;;;;;;;0.00;0.00;;;14.20;1.00;;;;;;5050145;28;20109;-86
2023/08/17 00:58:23;;;;;;;0.00;0.00;;;14.20;1.00;;;;;;5049801;28;20085;-86
2023/08/17 01:00:49;;;;;;;0.10;0.10;;;14.10;1.00;;;;;;5051574;28;20083;-89
2023/08/17 01:03:16;;;;;;;0.00;0.00;;;14.10;67.90;;;;;;5050073;28;20057;-86
2023/08/17 01:05:42;;;;;;;1.20;0.20;;;14.00;92.60;;;;;;5050205;28;20453;-88
2023/08/17 01:08:08;;;;;;;0.00;0.00;;;15.10;99.90;;;;;;5049786;28;20045;-86
2023/08/17 01:11:06;;;;;;;0.20;0.00;;;14.00;99.90;;;;;;5051309;28;20174;-86
2023/08/17 01:13:40;;;;;;;0.52;0.32;;;13.90;99.90;;;;;;5048867;28;20048;-87
2023/08/17 01:16:11;;;;;;;0.00;0.00;;;13.80;99.90;;;;;;5034044;28;20122;-86
2023/08/17 01:18:40;;;;;;;0.00;0.00;;;13.80;99.90;;;;;;5051233;28;20080;-86
2023/08/17 01:21:09;;;;;;;0.20;0.13;;;13.80;99.90;;;;;;5049634;28;20786;-86
2023/08/17 01:23:35;;;;;;;0.00;0.00;;;13.80;99.90;;;;;;5050235;28;20064;-87
2023/08/17 01:26:01;;;;;;;0.47;0.43;;;13.70;99.90;;;;;;5052413;28;20040;-86
2023/08/17 01:28:28;;;;;;;0.00;0.00;;;13.70;99.90;;;;;;5051360;28;20032;-86
2023/08/17 01:31:13;;;;;;;0.30;0.10;;;13.70;99.90;;;;;;5051187;28;20055;-87
2023/08/17 01:33:54;;;;;;;0.37;0.30;;;14.20;99.90;;;;;;5049268;28;20128;-87
2023/08/17 01:36:30;;;;;;;0.52;0.52;;;13.50;99.90;;;;;;5049546;28;20295;-87
2023/08/17 01:38:57;;;;;;;0.15;0.15;;;13.40;99.90;;;;;;5048913;28;20048;-87
2023/08/17 01:41:23;;;;;;;0.30;0.28;;;14.50;99.90;;;;;;5049966;28;20100;-86
2023/08/17 01:43:50;;;;;;;0.30;0.30;;;13.30;99.90;;;;;;5051022;28;20139;-86
2023/08/17 01:46:16;;;;;;;0.38;0.30;;;13.10;99.90;;;;;;5049217;28;20064;-87
2023/08/17 01:48:43;;;;;;;0.00;0.00;;;13.10;99.90;;;;;;5049741;28;20151;-87
2023/08/17 01:51:09;;;;;;;0.28;0.10;;;13.00;99.90;;;;;;5033157;28;20053;-87
2023/08/17 01:53:35;;;;;;;0.03;0.03;;;14.20;99.90;;;;;;5051053;28;20049;-86
2023/08/17 01:56:01;;;;;;;0.00;0.00;;;12.90;99.90;;;;;;5050194;28;20064;-86
2023/08/17 01:58:26;;;;;;;0.00;0.00;;;13.90;99.90;;;;;;5050834;28;20144;-87
2023/08/17 02:00:52;;;;;;;0.25;0.20;;;12.80;99.90;;;;;;5050655;28;20053;-86
2023/08/17 02:03:17;;;;;;;0.00;0.00;;;12.70;99.90;;;;;;5034016;28;20502;-86
2023/08/17 02:05:46;;;;;;;0.28;0.28;;;12.70;99.90;;;;;;5050861;28;20080;-86
2023/08/17 02:08:12;;;;;;;0.80;0.43;;;12.70;99.90;;;;;;5050619;28;20056;-86
2023/08/17 02:10:38;;;;;;;0.28;0.15;;;12.70;99.90;;;;;;5032056;28;20057;-87
2023/08/17 02:13:04;;;;;;;0.10;0.10;;;12.80;99.90;;;;;;5049030;28;20040;-87
2023/08/17 02:15:30;;;;;;;0.10;0.10;;;12.80;99.90;;;;;;5050612;28;20045;-86
2023/08/17 02:17:59;;;;;;;0.15;0.10;;;13.30;99.90;;;;;;5048742;28;20118;-87
2023/08/17 02:20:24;;;;;;;0.03;0.03;;;13.00;99.90;;;;;;5050313;28;20045;-86
2023/08/17 02:22:50;;;;;;;0.00;0.00;;;13.00;99.90;;;;;;5048966;28;20040;-86
2023/08/17 02:25:16;;;;;;;0.00;0.00;;;13.00;99.90;;;;;;5050793;28;20041;-86
2023/08/17 02:27:41;;;;;;;0.10;0.10;;;13.00;99.90;;;;;;5049637;28;20396;-86
2023/08/17 02:30:08;;;;;;;0.05;0.05;;;13.00;99.90;;;;;;5048907;28;20490;-86
2023/08/17 02:32:33;;;;;;;0.00;0.00;;;13.00;99.90;;;;;;5050144;28;20073;-86
2023/08/17 02:34:59;;;;;;;0.10;0.10;;;12.90;99.90;;;;;;5049814;28;20108;-86
2023/08/17 02:37:24;;;;;;;0.00;0.00;;;12.90;99.90;;;;;;5050836;28;20874;-86
2023/08/17 02:39:50;;;;;;;0.10;0.10;;;13.00;99.90;;;;;;5051122;28;20057;-86
2023/08/17 02:42:16;;;;;;;0.10;0.10;;;13.00;99.90;;;;;;5051182;28;20053;-86
2023/08/17 02:44:42;;;;;;;0.30;0.25;;;13.10;99.90;;;;;;5049430;28;20083;-86
2023/08/17 02:47:07;;;;;;;0.13;0.10;;;13.20;99.90;;;;;;5049567;28;20049;-87
2023/08/17 02:49:33;;;;;;;1.55;0.63;;;13.30;99.90;;;;;;5050272;28;20080;-86
2023/08/17 02:51:58;;;;;;;1.45;0.85;;;13.40;99.90;;;;;;5054745;28;20041;-86
2023/08/17 02:54:24;;;;;;;0.55;0.45;;;13.40;99.90;;;;;;5053247;28;20128;-86
2023/08/17 02:56:50;;;;;;;0.73;0.73;;;14.30;99.90;;;;;;5053458;28;20473;-87
2023/08/17 02:59:16;;;;;;;0.00;0.00;;;13.50;99.90;;;;;;5054007;28;20539;-86
2023/08/17 03:01:43;;;;;;;0.32;0.32;;;13.50;99.90;;;;;;5035063;28;20068;-86
2023/08/17 03:04:09;;;;;;;0.88;0.45;;;13.60;99.90;;;;;;5053437;28;20049;-87
2023/08/17 03:06:34;;;;;;;0.00;0.00;;;13.60;99.90;;;;;;5052244;28;20067;-87
2023/08/17 03:09:00;;;;;;;0.17;0.10;;;13.70;99.90;;;;;;5051969;28;20088;-86
2023/08/17 03:11:26;;;;;;;0.00;0.00;;;13.70;99.90;;;;;;5052208;28;20048;-87
2023/08/17 03:13:52;;;;;;;0.00;0.00;;;13.70;99.90;;;;;;5035367;28;20076;-87
2023/08/17 03:16:18;;;;;;;0.00;0.00;;;13.80;99.90;;;;;;5053698;28;20056;-87
2023/08/17 03:18:43;;;;;;;0.10;0.10;;;13.80;99.90;;;;;;5053422;28;20074;-87
2023/08/17 03:21:09;;;;;;;0.00;0.00;;;12.60;99.90;;;;;;5051950;28;20048;-87
2023/08/17 03:23:35;;;;;;;0.85;0.63;;;13.80;99.90;;;;;;5035339;28;20048;-87
2023/08/17 03:26:00;;;;;;;0.25;0.22;;;13.80;99.90;;;;;;5053768;28;20060;-87
2023/08/17 03:28:27;;;;;;;0.20;0.20;;;13.70;99.90;;;;;;5053164;28;20060;-87
2023/08/17 03:30:56;;;;;;;0.10;0.10;;;15.10;99.90;;;;;;5052988;28;20103;-87
2023/08/17 03:33:22;;;;;;;0.00;0.00;;;13.60;99.90;;;;;;5052145;28;20566;-87
2023/08/17 03:35:47;;;;;;;0.63;0.38;;;13.50;99.90;;;;;;5051394;28;20149;-86
2023/08/17 03:38:13;;;;;;;0.03;0.03;;;15.10;99.90;;;;;;5052642;28;20675;-87
2023/08/17 03:40:39;;;;;;;0.20;0.17;;;13.50;99.90;;;;;;5051891;28;20407;-87
2023/08/17 03:43:05;;;;;;;0.88;0.52;;;13.50;99.90;;;;;;5053962;28;20041;-87
2023/08/17 03:45:30;;;;;;;0.00;0.00;;;13.40;99.90;;;;;;5052287;28;20565;-87
2023/08/17 03:47:56;;;;;;;2.72;0.32;;;13.30;99.90;;;;;;5051816;28;20545;-87
2023/08/17 03:50:22;;;;;;;0.00;0.00;;;13.30;99.90;;;;;;5052646;28;20443;-87
2023/08/17 03:52:48;;;;;;;0.00;0.00;;;14.60;99.90;;;;;;5052740;28;20049;-87
2023/08/17 03:55:13;;;;;;;0.63;0.43;;;13.20;99.90;;;;;;5052723;28;20087;-87
2023/08/17 03:57:39;;;;;;;0.00;0.00;;;13.20;99.90;;;;;;5035983;28;20052;-86
2023/08/17 04:00:06;;;;;;;0.00;0.00;;;13.30;99.90;;;;;;5054133;28;20113;-87
2023/08/17 04:02:31;;;;;;;0.00;0.00;;;13.20;99.90;;;;;;5050494;28;20052;-86
2023/08/17 04:04:57;;;;;;;0.00;0.00;;;14.60;99.90;;;;;;5053189;28;20200;-87
2023/08/17 04:07:23;;;;;;;0.80;0.45;;;13.10;99.90;;;;;;5053698;28;20060;-87
2023/08/17 04:09:49;;;;;;;0.00;0.00;;;13.10;99.90;;;;;;5052737;28;20141;-87
2023/08/17 04:12:15;;;;;;;0.00;0.00;;;13.70;99.90;;;;;;5035767;28;20115;-87
2023/08/17 04:14:40;;;;;;;0.10;0.10;;;13.10;99.90;;;;;;5034587;28;20479;-87
2023/08/17 04:17:06;;;;;;;0.13;0.13;;;14.50;99.90;;;;;;5050945;28;20045;-87
2023/08/17 04:19:32;;;;;;;0.05;0.05;;;14.50;99.90;;;;;;5052620;28;20049;-87
2023/08/17 04:21:58;;;;;;;1.35;0.55;;;13.20;99.90;;;;;;5053430;28;20049;-87
2023/08/17 04:24:24;;;;;;;0.00;0.00;;;13.20;99.90;;;;;;5052369;28;20044;-87
2023/08/17 04:26:50;;;;;;;0.00;0.00;;;13.20;99.90;;;;;;5053614;28;20044;-87
2023/08/17 04:29:15;;;;;;;0.57;0.52;;;13.20;99.90;;;;;;5052587;28;20541;-86
2023/08/17 04:31:41;;;;;;;0.10;0.10;;;13.10;99.90;;;;;;5050561;28;20143;-86
2023/08/17 04:34:07;;;;;;;0.08;0.08;;;14.60;99.90;;;;;;5051395;28;20071;-86
2023/08/17 04:36:33;;;;;;;0.00;0.00;;;13.00;99.90;;;;;;5049668;28;20419;-86
2023/08/17 04:38:58;;;;;;;0.00;0.00;;;13.30;99.90;;;;;;5034336;28;20536;-87
2023/08/17 04:41:24;;;;;;;11.75;1.95;;;13.10;99.90;;;;;;5052085;28;20099;-87
2023/08/17 04:43:50;;;;;;;0.15;0.10;;;13.10;99.90;;;;;;5051598;28;20130;-86
2023/08/17 04:46:16;;;;;;;0.00;0.00;;;13.00;99.90;;;;;;5052338;28;20487;-86
2023/08/17 04:48:41;;;;;;;0.55;0.50;;;13.00;99.90;;;;;;5052118;28;20488;-86
2023/08/17 04:51:07;;;;;;;0.90;0.73;;;13.00;99.90;;;;;;5052157;28;20277;-86
2023/08/17 04:53:33;;;;;;;0.00;0.00;;;13.30;99.90;;;;;;5050691;28;20499;-86
2023/08/17 04:55:59;;;;;;;0.00;0.00;;;14.40;99.90;;;;;;5051891;28;20090;-86
2023/08/17 04:58:26;;;;;;;0.00;0.00;;;13.00;99.90;;;;;;5052852;28;20048;-87
2023/08/17 05:00:51;;;;;;;0.38;0.10;;;13.00;99.90;;;;;;5051549;28;20140;-86
2023/08/17 05:03:17;;;;;;;0.20;0.20;;;13.00;99.90;;;;;;5052251;28;20166;-86
2023/08/17 05:05:43;;;;;;;0.40;0.40;;;13.10;99.90;;;;;;5034293;28;20052;-86
2023/08/17 05:08:09;;;;;;;0.00;0.00;;;14.30;99.90;;;;;;5049862;28;20049;-86
2023/08/17 05:10:34;;;;;;;0.08;0.03;;;13.10;99.90;;;;;;5033470;28;20053;-86
2023/08/17 05:13:02;;;;;;;0.85;0.60;;;13.20;99.90;;;;;;5034666;28;20143;-86
2023/08/17 05:15:27;;;;;;;0.00;0.00;;;13.20;99.90;;;;;;5051235;28;20496;-86
2023/08/17 05:17:53;;;;;;;0.10;0.10;;;13.30;99.90;;;;;;5051802;28;20103;-86
2023/08/17 05:20:20;;;;;;;1.52;0.75;;;13.30;99.90;;;;;;5050720;28;20053;-87
2023/08/17 05:22:46;;;;;;;0.10;0.10;;;13.40;99.90;;;;;;5033672;28;20041;-85
2023/08/17 05:25:14;;;;;;;0.15;0.10;;;14.50;99.90;;;;;;5052007;28;20049;-87
2023/08/17 05:27:40;;;;;;;0.00;0.00;;;13.60;99.90;;;;;;5033230;28;20136;-86
2023/08/17 05:30:07;;;;;;;0.00;0.00;;;13.70;99.90;;;;;;5049918;28;20084;-86
2023/08/17 05:32:32;;;;;;;0.00;0.00;;;13.70;99.90;;;;;;5050266;28;20048;-86
2023/08/17 05:34:58;;;;;;;0.00;0.00;;;13.80;99.90;;;;;;5050005;28;20057;-87
2023/08/17 05:37:24;;;;;;;0.15;0.10;;;13.90;99.90;;;;;;5046365;28;20049;-87
2023/08/17 05:39:50;;;;;;;0.05;0.05;;;14.00;99.90;;;;;;5044014;28;20095;-86
2023/08/17 05:42:16;;;;;;;0.10;0.10;;;14.10;99.90;;;;;;5046835;28;20049;-87
2023/08/17 05:44:41;;;;;;;0.65;0.57;;;15.00;99.90;;;;;;5046055;28;20049;-86
2023/08/17 05:47:07;;;;;;;0.00;0.00;;;14.30;99.90;;;;;;5045947;28;20399;-86
2023/08/17 05:49:32;;;;;;;2.97;0.45;;;14.40;99.90;;;;;;5045033;28;20044;-86
2023/08/17 05:51:58;;;;;;;0.00;0.00;;;14.60;99.90;;;;;;5046294;28;20041;-86
2023/08/17 05:54:24;;;;;;;0.03;0.03;;;14.70;99.90;;;;;;5046358;28;20391;-86
2023/08/17 05:56:49;;;;;;;0.10;0.10;;;16.40;99.90;;;;;;5046994;28;20049;-87
2023/08/17 05:59:15;;;;;;;0.00;0.00;;;15.20;99.90;;;;;;5045179;28;20056;-86
2023/08/17 06:01:40;;;;;;;0.45;0.22;;;16.40;99.90;;;;;;5043357;28;20041;-86
2023/08/17 06:04:09;;;;;;;0.10;0.10;;;15.40;99.90;;;;;;5045461;28;20049;-86
2023/08/17 06:06:35;;;;;;;0.05;0.05;;;15.50;99.90;;;;;;5029193;28;20463;-86
2023/08/17 06:09:01;;;;;;;0.38;0.28;;;15.60;1.00;;;;;;5043375;28;20151;-86
2023/08/17 06:11:26;;;;;;;0.20;0.20;;;16.00;1.00;;;;;;5045112;28;20052;-86
2023/08/17 06:13:52;;;;;;;0.00;0.00;;;15.70;99.90;;;;;;5026877;28;20048;-87
2023/08/17 06:16:18;;;;;;;0.22;0.10;;;15.80;99.90;;;;;;5044903;28;20041;-87
2023/08/17 06:18:43;;;;;;;4.63;1.05;;;15.90;99.90;;;;;;5044741;28;20041;-86
2023/08/17 06:21:09;;;;;;;0.00;0.00;;;16.00;55.80;;;;;;5043757;28;20045;-86
2023/08/17 06:23:34;;;;;;;0.65;0.55;;;16.10;29.40;;;;;;5044196;28;20139;-86
2023/08/17 06:26:00;;;;;;;0.00;0.00;;;17.00;1.00;;;;;;5043151;28;20045;-86
2023/08/17 06:28:27;;;;;;;0.10;0.10;;;16.30;1.00;;;;;;5042398;28;20063;-87
2023/08/17 06:30:53;;;;;;;0.65;0.65;;;16.30;1.00;;;;;;5046187;28;20496;-87
2023/08/17 06:33:19;;;;;;;1.00;0.80;;;16.80;99.90;;;;;;5045949;28;20458;-86
2023/08/17 06:35:45;;;;;;;0.00;0.00;;;16.40;99.90;;;;;;5044755;28;20049;-87
2023/08/17 06:38:11;;;;;;;0.13;0.03;;;16.50;99.90;;;;;;5043740;28;20122;-87
2023/08/17 06:40:38;;;;;;;0.43;0.25;;;16.70;7.40;;;;;;5046635;28;20063;-87
2023/08/17 06:43:04;;;;;;;0.60;0.55;;;16.80;99.90;;;;;;5045677;28;20051;-87
2023/08/17 06:45:32;;;;;;;0.00;0.00;;;17.00;99.90;;;;;;5044593;28;20041;-87
2023/08/17 06:47:58;;;;;;;0.05;0.05;;;17.00;99.90;;;;;;5043587;28;20051;-87
2023/08/17 06:50:23;;;;;;;0.00;0.00;;;17.20;99.90;;;;;;5044358;28;20416;-87
2023/08/17 06:52:49;;;;;;;0.73;0.55;;;17.60;99.90;;;;;;5042734;28;20495;-87
2023/08/17 06:55:15;;;;;;;0.00;0.00;;;17.20;99.90;;;;;;5042995;28;20055;-87
2023/08/17 06:57:41;;;;;;;0.00;0.00;;;17.20;99.90;;;;;;5043259;28;20045;-87
2023/08/17 07:00:07;;;;;;;1.08;0.98;;;17.20;99.90;;;;;;5043063;28;20103;-86
2023/08/17 07:02:34;;;;;;;0.00;0.00;;;17.20;99.90;;;;;;5044174;28;20414;-86
2023/08/17 07:05:00;;;;;;;0.00;0.00;;;17.20;99.90;;;;;;5042003;28;20057;-87
2023/08/17 07:07:26;;;;;;;2.45;0.40;;;17.10;99.90;;;;;;5043119;28;20053;-87
2023/08/17 07:09:51;;;;;;;0.10;0.10;;;17.10;99.90;;;;;;5041926;28;20056;-87
2023/08/17 07:12:19;;;;;;;0.38;0.08;;;17.10;1.00;;;;;;5043116;28;20044;-86
2023/08/17 07:14:45;;;;;;;0.17;0.08;;;17.30;99.90;;;;;;5043039;28;20132;-87
2023/08/17 07:17:10;;;;;;;0.08;0.05;;;17.40;99.90;;;;;;5042231;28;20187;-86
2023/08/17 07:19:36;;;;;;;0.00;0.00;;;17.40;99.90;;;;;;5025771;28;20909;-87
2023/08/17 07:22:02;;;;;;;0.10;0.10;;;18.00;99.90;;;;;;5044334;28;20049;-87
2023/08/17 07:24:27;;;;;;;0.05;0.05;;;17.60;95.90;;;;;;5025830;28;20041;-87
2023/08/17 07:26:53;;;;;;;0.03;0.03;;;18.20;99.90;;;;;;5042832;28;20520;-87
2023/08/17 07:29:19;;;;;;;0.00;0.00;;;18.00;99.90;;;;;;5024313;28;20068;-86
2023/08/17 07:31:44;;;;;;;0.90;0.55;;;17.90;1.00;;;;;;5024380;28;20045;-87
2023/08/17 07:34:10;;;;;;;0.45;0.35;;;18.00;99.90;;;;;;5043386;28;20048;-86
2023/08/17 07:36:36;;;;;;;0.03;0.03;;;18.00;1.00;;;;;;5040124;28;20128;-87
2023/08/17 07:39:04;;;;;;;0.10;0.10;;;18.40;1.00;;;;;;5044925;28;20048;-87
2023/08/17 07:41:29;;;;;;;2.92;0.55;;;18.10;99.90;;;;;;5042988;28;20053;-88
2023/08/17 07:43:55;;;;;;;0.03;0.03;;;18.00;99.90;;;;;;5042852;28;20088;-88
2023/08/17 07:46:21;;;;;;;0.10;0.10;;;18.10;1.00;;;;;;5026810;28;20049;-87
2023/08/17 07:48:50;;;;;;;0.13;0.13;;;18.10;1.00;;;;;;5026488;28;20190;-88
2023/08/17 07:51:18;;;;;;;0.00;0.00;;;18.40;99.90;;;;;;5042985;28;20045;-87
2023/08/17 07:53:44;;;;;;;0.00;0.00;;;18.40;99.90;;;;;;5027128;28;20044;-87
2023/08/17 07:56:12;;;;;;;0.30;0.13;;;18.40;93.40;;;;;;5046619;28;20048;-87
2023/08/17 07:58:38;;;;;;;0.30;0.28;;;18.50;99.90;;;;;;5026551;28;20116;-87
2023/08/17 08:01:03;;;;;;;0.17;0.17;;;18.50;38.10;;;;;;5044509;28;20132;-87
2023/08/17 08:03:29;;;;;;;0.38;0.28;;;18.40;1.00;;;;;;5043912;28;20403;-87
2023/08/17 08:05:55;;;;;;;3.38;0.95;;;18.50;1.00;;;;;;5046195;28;20127;-87
2023/08/17 08:08:23;;;;;;;0.10;0.10;;;18.30;1.00;;;;;;5031233;28;20045;-87
2023/08/17 08:10:49;;;;;;;0.20;0.15;;;18.30;1.00;;;;;;5027318;28;20125;-87
2023/08/17 08:13:17;;;;;;;0.00;0.00;;;18.60;1.00;;;;;;5027755;28;20598;-87
2023/08/17 08:15:42;;;;;;;0.00;0.00;;;18.20;10.30;;;;;;5020389;28;20431;-87
2023/08/17 08:18:08;;;;;;;1.10;0.38;;;18.20;1.00;;;;;;5013944;28;20049;-88
2023/08/17 08:20:34;;;;;;;0.00;0.00;;;18.30;1.00;;;;;;5014092;28;20077;-87
2023/08/17 08:23:02;;;;;;;0.10;0.10;;;18.00;1.00;;;;;;5015830;28;20729;-87
2023/08/17 08:25:27;;;;;;;0.00;0.00;;;18.40;1.00;;;;;;5027222;28;20369;-88
2023/08/17 08:27:53;;;;;;;0.00;0.00;;;18.60;1.00;;;;;;5045504;28;20088;-87
2023/08/17 08:30:19;;;;;;;0.47;0.28;;;18.90;99.90;;;;;;5048022;28;20106;-87
2023/08/17 08:32:47;;;;;;;0.10;0.00;;;19.40;99.90;;;;;;5064516;28;20191;-87
2023/08/17 08:35:13;;;;;;;0.10;0.05;;;19.90;99.90;;;;;;5047690;28;20040;-87
2023/08/17 08:37:38;;;;;;;1.88;0.63;;;20.00;99.90;;;;;;5045366;28;20045;-87
2023/08/17 08:40:13;;;;;;;0.00;0.00;;;20.50;99.90;;;;;;5063348;28;20613;-87
2023/08/17 08:42:38;;;;;;;0.05;0.05;;;20.00;99.90;;;;;;5031199;28;20156;-87
2023/08/17 08:45:05;;;;;;;0.00;0.00;;;20.30;99.90;;;;;;5026111;28;20488;-88
2023/08/17 08:47:34;;;;;;;0.03;0.03;;;20.40;99.90;;;;;;5025577;28;20045;-87
2023/08/17 08:50:07;;;;;;;0.13;0.10;;;20.80;94.10;;;;;;5030408;28;20041;-88
2023/08/17 08:52:42;;;;;;;0.00;0.00;;;21.20;72.80;;;;;;5012576;28;20068;-88
2023/08/17 08:55:15;;;;;;;0.00;0.00;;;21.30;22.70;;;;;;5028274;28;20522;-86
2023/08/17 08:57:42;;;;;;;0.00;0.00;;;21.10;1.00;;;;;;5028670;28;20105;-89
2023/08/17 09:00:11;;;;;;;0.00;0.00;;;20.90;10.70;;;;;;5012323;28;20136;-85
2023/08/17 09:02:38;;;;;;;1.23;0.20;;;20.80;16.70;;;;;;5029055;28;20087;-86
2023/08/17 09:05:06;;;;;;;0.00;0.00;;;20.80;10.40;;;;;;5012817;28;20506;-88
2023/08/17 09:07:33;;;;;;;0.30;0.20;;;20.80;1.00;;;;;;5028931;28;20148;-87
2023/08/17 09:09:59;;;;;;;0.20;0.20;;;20.90;1.00;;;;;;5011784;28;20140;-86
2023/08/17 09:12:28;;;;;;;0.00;0.00;;;21.00;2.40;;;;;;5012622;28;20136;-86
2023/08/17 09:14:56;;;;;;;0.00;0.00;;;21.30;3.80;;;;;;5035496;28;20072;-86
2023/08/17 09:17:25;;;;;;;0.35;0.10;;;21.70;1.00;;;;;;5031704;28;20057;-86
2023/08/17 09:19:52;;;;;;;0.80;0.40;;;21.90;1.00;;;;;;5047583;28;20041;-86
2023/08/17 09:22:25;;;;;;;0.15;0.10;;;21.90;1.00;;;;;;5028393;28;20037;-86
2023/08/17 09:24:51;;;;;;;0.00;0.00;;;21.20;1.00;;;;;;5034812;28;20080;-86
2023/08/17 09:27:17;;;;;;;0.20;0.17;;;22.20;1.00;;;;;;5024920;28;20107;-86
2023/08/17 09:29:46;;;;;;;0.20;0.17;;;20.90;1.00;;;;;;5025222;28;20509;-86
2023/08/17 09:32:15;;;;;;;0.20;0.15;;;21.60;1.00;;;;;;5024643;28;20055;-87
2023/08/17 09:34:49;;;;;;;0.85;0.38;;;21.30;1.00;;;;;;5026297;28;20450;-87
2023/08/17 09:37:17;;;;;;;0.10;0.08;;;21.20;1.00;;;;;;5044202;28;20106;-86
2023/08/17 09:39:43;;;;;;;0.00;0.00;;;21.10;1.00;;;;;;5026322;28;20091;-86
2023/08/17 09:42:12;;;;;;;1.45;0.32;;;21.10;1.00;;;;;;5050512;28;20037;-86
2023/08/17 09:44:38;;;;;;;0.00;0.00;;;21.00;1.00;;;;;;5027753;28;20049;-86
2023/08/17 09:47:07;;;;;;;7.28;2.53;;;21.10;1.00;;;;;;5043471;28;20044;-86
2023/08/17 09:49:36;;;;;;;0.20;0.20;;;21.00;1.00;;;;;;5043144;28;20127;-86
2023/08/17 09:52:02;;;;;;;0.52;0.28;;;21.00;1.00;;;;;;5042024;28;20578;-87
2023/08/17 09:54:31;;;;;;;0.17;0.17;;;21.10;1.00;;;;;;5043391;28;20048;-88
2023/08/17 09:56:58;;;;;;;0.10;0.10;;;21.30;1.00;;;;;;5025030;28;20133;-87
2023/08/17 09:59:33;;;;;;;0.00;0.00;;;21.20;1.00;;;;;;5024533;28;20055;-87
2023/08/17 10:02:03;;;;;;;1.55;0.22;;;21.10;1.00;;;;;;5024961;28;20045;-86
2023/08/17 10:04:34;;;;;;;0.00;0.00;;;20.70;1.00;;;;;;5043626;28;20499;-87
2023/08/17 10:07:05;;;;;;;0.15;0.10;;;20.70;1.00;;;;;;5044481;28;20045;-88
2023/08/17 10:09:42;;;;;;;0.00;0.00;;;21.10;1.00;;;;;;5044545;28;20570;-88
2023/08/17 10:12:15;;;;;;;0.00;0.00;;;21.20;1.00;;;;;;5044873;28;20490;-88
2023/08/17 10:14:55;;;;;;;0.17;0.15;;;21.50;1.00;;;;;;5043793;28;20067;-88
2023/08/17 10:17:29;;;;;;;0.00;0.00;;;21.90;1.00;;;;;;5045556;28;20516;-87
2023/08/17 10:19:59;;;;;;;0.00;0.00;;;22.10;1.00;;;;;;5044539;28;20488;-88
2023/08/17 10:22:44;;;;;;;0.10;0.10;;;22.90;1.00;;;;;;5027783;28;20080;-87
2023/08/17 10:25:12;;;;;;;0.00;0.00;;;23.50;1.00;;;;;;5043108;28;20099;-86
2023/08/17 10:27:38;;;;;;;0.05;0.03;;;24.00;1.00;;;;;;5041199;28;20049;-87
2023/08/17 10:30:05;;;;;;;0.00;0.00;;;23.50;1.00;;;;;;5043128;28;20055;-86
2023/08/17 10:32:31;;;;;;;0.32;0.25;;;23.60;1.00;;;;;;5042870;28;20044;-86
2023/08/17 10:34:58;;;;;;;0.40;0.20;;;23.80;1.00;;;;;;5041197;28;20119;-86
2023/08/17 10:37:24;;;;;;;0.00;0.00;;;23.90;1.00;;;;;;5026563;28;20052;-86
2023/08/17 10:39:51;;;;;;;0.00;0.00;;;23.60;1.00;;;;;;5043081;28;20103;-86
2023/08/17 10:42:33;;;;;;;0.38;0.32;;;23.20;1.00;;;;;;5044465;28;20123;-86
2023/08/17 10:45:01;;;;;;;0.10;0.10;;;23.30;1.00;;;;;;5042581;28;20575;-87
2023/08/17 10:47:29;;;;;;;0.00;0.00;;;23.30;1.00;;;;;;5044078;28;20084;-86
2023/08/17 10:49:57;;;;;;;0.17;0.10;;;23.70;1.00;;;;;;5043570;28;20037;-87
2023/08/17 10:52:31;;;;;;;0.10;0.10;;;23.90;1.00;;;;;;5043721;28;20068;-87
2023/08/17 10:55:05;;;;;;;0.00;0.00;;;24.00;1.00;;;;;;5044180;28;20060;-86
2023/08/17 10:57:37;;;;;;;0.00;0.00;;;23.60;1.00;;;;;;5043005;28;20049;-87
2023/08/17 11:00:31;;;;;;;0.00;0.00;;;23.30;1.00;;;;;;5042365;28;20134;-87
2023/08/17 11:03:01;;;;;;;0.13;0.10;;;22.70;1.00;;;;;;5042358;28;20116;-86
2023/08/17 11:05:53;;;;;;;2.72;0.40;;;22.40;1.00;;;;;;5041996;28;20503;-86
2023/08/17 11:08:32;;;;;;;0.38;0.28;;;22.40;1.00;;;;;;5042546;28;20049;-86
2023/08/17 11:11:05;;;;;;;0.77;0.35;;;22.50;1.00;;;;;;5028405;28;20068;-86
2023/08/17 11:13:36;;;;;;;0.10;0.10;;;22.50;1.00;;;;;;5046649;28;20156;-86
2023/08/17 11:16:03;;;;;;;0.10;0.10;;;22.30;1.00;;;;;;5047933;28;20048;-86
2023/08/17 11:18:28;;;;;;;0.20;0.20;;;22.40;1.00;;;;;;5047435;28;20529;-86
2023/08/17 11:20:55;;;;;;;0.00;0.00;;;22.00;1.00;;;;;;5047513;28;20068;-86
2023/08/17 11:23:22;;;;;;;2.13;0.65;;;21.90;1.00;;;;;;5048007;28;20047;-86
2023/08/17 11:25:48;;;;;;;1.15;0.20;;;22.10;1.00;;;;;;5046557;28;20416;-86
2023/08/17 11:28:15;;;;;;;0.25;0.15;;;22.10;1.00;;;;;;5047758;28;20045;-86
2023/08/17 11:30:41;;;;;;;0.05;0.05;;;22.40;1.00;;;;;;5046397;28;20487;-87
2023/08/17 11:33:08;;;;;;;0.15;0.08;;;22.60;1.00;;;;;;5046048;28;20098;-87
2023/08/17 11:35:34;;;;;;;0.15;0.15;;;22.60;1.00;;;;;;5047490;28;20092;-86
2023/08/17 11:38:00;;;;;;;1.95;0.43;;;22.80;1.00;;;;;;5046962;28;20079;-86
2023/08/17 11:40:28;;;;;;;0.10;0.10;;;22.90;1.00;;;;;;5047445;28;20045;-86
2023/08/17 11:42:53;;;;;;;0.17;0.17;;;23.00;1.00;;;;;;5045679;28;20049;-87
2023/08/17 11:45:19;;;;;;;2.50;0.70;;;23.10;1.00;;;;;;5046094;28;20167;-86
2023/08/17 11:47:47;;;;;;;0.40;0.35;;;23.10;1.00;;;;;;5029122;28;20045;-86
2023/08/17 11:50:14;;;;;;;3.90;1.13;;;23.40;1.00;;;;;;5046722;28;20041;-86
2023/08/17 11:52:40;;;;;;;0.50;0.38;;;23.50;1.00;;;;;;5028709;28;20049;-86
2023/08/17 11:55:09;;;;;;;1.48;0.50;;;23.60;1.00;;;;;;5045637;28;20541;-86
2023/08/17 11:57:36;;;;;;;0.00;0.00;;;23.60;1.00;;;;;;5045955;28;20056;-86
2023/08/17 12:00:06;;;;;;;0.00;0.00;;;23.80;1.00;;;;;;5046994;28;20045;-86
2023/08/17 12:02:37;;;;;;;0.20;0.20;;;24.20;1.00;;;;;;5044895;28;20511;-86
2023/08/17 12:05:06;;;;;;;0.00;0.00;;;24.90;1.00;;;;;;5044901;28;20052;-86
2023/08/17 12:07:32;;;;;;;1.10;0.70;;;24.90;1.00;;;;;;5046372;28;20449;-86
2023/08/17 12:09:58;;;;;;;2.67;1.23;;;24.60;1.00;;;;;;5045432;28;20045;-86
2023/08/17 12:12:24;;;;;;;0.65;0.25;;;24.50;1.00;;;;;;5046633;28;20392;-86
2023/08/17 12:14:49;;;;;;;2.13;0.52;;;24.60;1.00;;;;;;5045181;28;20037;-86
2023/08/17 12:17:19;;;;;;;0.20;0.20;;;24.80;1.00;;;;;;5047142;28;20415;-86
2023/08/17 12:19:48;;;;;;;0.00;0.00;;;25.00;1.00;;;;;;5046359;28;20051;-86
2023/08/17 12:22:14;;;;;;;0.10;0.10;;;25.90;1.00;;;;;;5044211;28;20053;-86
2023/08/17 12:24:40;;;;;;;0.50;0.40;;;25.90;1.00;;;;;;5044969;28;20059;-86
2023/08/17 12:27:06;;;;;;;0.90;0.35;;;25.70;1.00;;;;;;5044536;28;20419;-86
2023/08/17 12:29:32;;;;;;;7.30;1.85;;;25.60;1.00;;;;;;5045818;28;20048;-86
2023/08/17 12:31:59;;;;;;;0.08;0.08;;;25.50;1.00;;;;;;5046937;28;20056;-86
2023/08/17 12:34:25;;;;;;;0.00;0.00;;;25.40;1.00;;;;;;5045627;28;20419;-86
2023/08/17 12:36:51;;;;;;;0.00;0.00;;;25.10;1.00;;;;;;5044183;28;20052;-86
2023/08/17 12:39:16;;;;;;;3.10;0.65;;;25.00;1.00;;;;;;5046404;28;20439;-86
2023/08/17 12:41:42;;;;;;;0.38;0.13;;;24.80;1.00;;;;;;5044458;28;20025;-86
2023/08/17 12:44:14;;;;;;;1.38;0.90;;;24.70;1.00;;;;;;5044485;28;20492;-87
2023/08/17 12:46:40;;;;;;;0.10;0.10;;;25.10;1.00;;;;;;5044385;28;20495;-86
2023/08/17 12:49:06;;;;;;;0.00;0.00;;;25.30;1.00;;;;;;5043912;28;20052;-87